Time;durP1;ratioP1;P1;durP2;ratioP2;P2;SDS_P1;SDS_P2;PMS_P1;PMS_P2;Temp;Humidity;BMP_temperature;BMP_pressure;BME280_temperature;BME280_humidity;BME280_pressure;Samples;Min_cycle;Max_cycle;Signal;HPM_P1;HPM_P2
2021/11/28 00:00:55;;;;;;;18.33;13.43;;;3.10;99.90;;;;;;4922376;29;20485;-61
2021/11/28 00:03:23;;;;;;;18.00;13.57;;;3.10;99.90;;;;;;4917720;29;20553;-61
2021/11/28 00:05:58;;;;;;;19.53;14.17;;;3.30;99.90;;;;;;4916737;29;20592;-61
2021/11/28 00:11:22;;;;;;;19.90;14.13;;;3.30;99.90;;;;;;4904818;29;20534;-59
2021/11/28 00:14:04;;;;;;;21.77;14.43;;;3.40;99.90;;;;;;4917057;29;20494;-62
2021/11/28 00:16:33;;;;;;;21.57;16.10;;;3.40;99.90;;;;;;4920568;29;20920;-61
2021/11/28 00:19:02;;;;;;;22.00;15.70;;;3.30;99.90;;;;;;4915426;29;20486;-61
2021/11/28 00:21:30;;;;;;;20.90;15.90;;;3.10;99.90;;;;;;4919295;29;20513;-61
2021/11/28 00:23:58;;;;;;;18.50;14.03;;;3.10;99.90;;;;;;4913064;29;20479;-61
2021/11/28 00:26:26;;;;;;;19.10;14.03;;;3.00;99.90;;;;;;4918273;29;20489;-60
2021/11/28 00:28:56;;;;;;;17.00;13.77;;;3.00;99.90;;;;;;4920746;29;20476;-61
2021/11/28 00:31:24;;;;;;;16.20;13.47;;;3.00;99.90;;;;;;4920547;29;20894;-62
2021/11/28 00:33:52;;;;;;;17.23;13.10;;;2.90;99.90;;;;;;4913763;29;20551;-60
2021/11/28 00:36:20;;;;;;;15.77;12.50;;;2.90;99.90;;;;;;4923818;29;20564;-62
2021/11/28 00:38:48;;;;;;;15.87;12.40;;;2.90;99.90;;;;;;4921905;29;20492;-61
2021/11/28 00:41:17;;;;;;;16.23;12.50;;;3.10;99.90;;;;;;4917781;29;20470;-61
2021/11/28 00:43:45;;;;;;;16.13;12.50;;;3.00;99.90;;;;;;4914615;29;20575;-61
2021/11/28 00:46:14;;;;;;;18.23;14.00;;;3.10;99.90;;;;;;4917713;29;20833;-61
2021/11/28 00:48:44;;;;;;;17.27;13.37;;;3.10;99.90;;;;;;4925546;29;20472;-61
2021/11/28 00:53:55;;;;;;;17.37;12.60;;;3.20;99.90;;;;;;4910773;29;20482;-61
2021/11/28 00:56:23;;;;;;;16.13;13.10;;;3.20;99.90;;;;;;4900735;29;20489;-61
2021/11/28 00:58:51;;;;;;;18.63;13.47;;;3.30;99.90;;;;;;4926545;29;20483;-60
2021/11/28 01:01:21;;;;;;;19.80;13.83;;;3.30;99.90;;;;;;4908807;29;20475;-61
2021/11/28 01:03:50;;;;;;;17.87;14.27;;;3.30;99.90;;;;;;4923073;29;20579;-62
2021/11/28 01:06:18;;;;;;;19.27;14.70;;;3.20;99.90;;;;;;4914179;29;20487;-61
2021/11/28 01:08:46;;;;;;;19.97;15.20;;;3.10;99.90;;;;;;4916501;29;20497;-61
2021/11/28 01:11:15;;;;;;;17.27;13.57;;;3.10;99.90;;;;;;4915443;29;20487;-61
2021/11/28 01:13:43;;;;;;;19.97;14.93;;;3.00;99.90;;;;;;4915803;29;20480;-61
2021/11/28 01:16:11;;;;;;;13.97;11.43;;;3.00;99.90;;;;;;4904734;29;20471;-61
2021/11/28 01:18:41;;;;;;;18.13;14.10;;;3.10;99.90;;;;;;4914194;29;20576;-61
2021/11/28 01:21:09;;;;;;;16.53;13.03;;;3.10;99.90;;;;;;4917261;29;20552;-62
2021/11/28 01:23:38;;;;;;;18.13;13.73;;;3.10;99.90;;;;;;4932180;29;20547;-61
2021/11/28 01:26:13;;;;;;;19.97;15.37;;;3.00;99.90;;;;;;4914003;29;20550;-61
2021/11/28 01:28:42;;;;;;;17.27;13.40;;;3.00;99.90;;;;;;4910798;29;20570;-61
2021/11/28 01:31:10;;;;;;;16.60;12.70;;;3.10;99.90;;;;;;4923855;29;20829;-60
2021/11/28 01:33:38;;;;;;;15.73;12.37;;;3.10;99.90;;;;;;4911597;29;20938;-61
2021/11/28 01:36:08;;;;;;;19.00;14.03;;;3.10;99.90;;;;;;4916511;29;20539;-61
2021/11/28 01:38:36;;;;;;;18.53;14.17;;;3.20;99.90;;;;;;4919620;29;20479;-62
2021/11/28 01:41:05;;;;;;;16.43;13.10;;;3.10;99.90;;;;;;4912106;29;20476;-61
2021/11/28 01:43:33;;;;;;;17.53;13.03;;;3.10;99.90;;;;;;4918801;29;20478;-60
2021/11/28 01:46:03;;;;;;;19.27;14.10;;;3.00;99.90;;;;;;4914126;29;20492;-61
2021/11/28 01:48:34;;;;;;;18.37;13.00;;;3.00;99.90;;;;;;4911853;29;21013;-62
2021/11/28 01:51:03;;;;;;;18.43;13.47;;;3.00;99.90;;;;;;4923449;29;20473;-60
2021/11/28 01:53:34;;;;;;;16.57;13.47;;;3.10;99.90;;;;;;4910327;29;20877;-61
2021/11/28 01:56:02;;;;;;;15.60;12.23;;;3.00;99.90;;;;;;4922974;29;20487;-61
2021/11/28 01:58:37;;;;;;;16.97;12.27;;;3.00;99.90;;;;;;4913670;29;21055;-61
2021/11/28 02:01:08;;;;;;;15.00;11.63;;;3.10;99.90;;;;;;4911546;29;20478;-62
2021/11/28 02:03:39;;;;;;;18.27;14.10;;;3.20;99.90;;;;;;4890121;29;20477;-60
2021/11/28 02:06:09;;;;;;;18.43;13.37;;;3.10;99.90;;;;;;4916217;29;20498;-61
2021/11/28 02:08:40;;;;;;;16.97;14.13;;;3.10;99.90;;;;;;4890444;29;20482;-61
2021/11/28 02:11:10;;;;;;;18.80;14.23;;;3.20;99.90;;;;;;4911498;29;20474;-61
2021/11/28 02:13:38;;;;;;;16.47;12.30;;;3.10;99.90;;;;;;4922834;29;20537;-61
2021/11/28 02:16:09;;;;;;;18.23;14.00;;;3.20;99.90;;;;;;4927419;29;20895;-60
2021/11/28 02:18:38;;;;;;;19.80;15.47;;;3.20;99.90;;;;;;4918284;29;20493;-61
2021/11/28 02:21:09;;;;;;;19.87;14.80;;;3.40;99.90;;;;;;4921209;29;20500;-61
2021/11/28 02:23:39;;;;;;;20.37;14.70;;;3.30;99.90;;;;;;4905748;29;20981;-62
2021/11/28 02:26:12;;;;;;;24.13;14.23;;;3.20;99.90;;;;;;4913604;29;20538;-61
2021/11/28 02:28:41;;;;;;;19.23;15.43;;;3.30;99.90;;;;;;4916177;29;20549;-61
2021/11/28 02:31:10;;;;;;;17.70;14.47;;;3.40;99.90;;;;;;4921188;29;20478;-62
2021/11/28 02:33:38;;;;;;;18.77;14.73;;;3.20;99.90;;;;;;4888005;29;20514;-61
2021/11/28 02:36:08;;;;;;;19.13;14.73;;;3.20;99.90;;;;;;4897632;29;20476;-61
2021/11/28 02:38:36;;;;;;;18.87;14.70;;;3.20;99.90;;;;;;4923662;29;21026;-60
2021/11/28 02:41:05;;;;;;;20.17;15.10;;;3.20;99.90;;;;;;4911686;29;20489;-61
2021/11/28 02:43:37;;;;;;;18.77;14.60;;;3.20;99.90;;;;;;4913472;29;21063;-61
2021/11/28 02:46:09;;;;;;;17.97;14.33;;;3.30;99.90;;;;;;4913427;29;20480;-60
2021/11/28 02:48:38;;;;;;;17.93;14.03;;;3.40;99.90;;;;;;4920586;29;20481;-60
2021/11/28 02:51:08;;;;;;;22.40;15.83;;;3.30;99.90;;;;;;4923388;29;20486;-61
2021/11/28 02:53:37;;;;;;;20.93;15.57;;;3.20;99.90;;;;;;4921239;29;20475;-61
2021/11/28 02:56:06;;;;;;;19.63;15.43;;;3.20;99.90;;;;;;4912373;29;21024;-61
2021/11/28 02:58:36;;;;;;;18.13;14.60;;;3.20;99.90;;;;;;4918561;29;20484;-61
2021/11/28 03:01:08;;;;;;;19.87;14.90;;;3.20;99.90;;;;;;4910653;29;20482;-62
2021/11/28 03:03:38;;;;;;;17.60;13.67;;;3.20;99.90;;;;;;4908102;29;20485;-62
2021/11/28 03:06:08;;;;;;;19.97;15.67;;;3.20;99.90;;;;;;4896410;29;20485;-60
2021/11/28 03:08:38;;;;;;;20.30;15.63;;;3.20;99.90;;;;;;4912536;29;20584;-62
2021/11/28 03:11:08;;;;;;;20.53;15.03;;;3.20;99.90;;;;;;4910281;29;20961;-61
2021/11/28 03:13:39;;;;;;;17.00;14.20;;;3.20;99.90;;;;;;4912739;29;20870;-60
2021/11/28 03:16:11;;;;;;;18.53;14.50;;;3.20;99.90;;;;;;4911500;29;20986;-61
2021/11/28 03:18:40;;;;;;;19.47;15.70;;;3.30;99.90;;;;;;4919551;29;20510;-61
2021/11/28 03:21:12;;;;;;;20.20;15.73;;;3.20;99.90;;;;;;4920025;29;20516;-61
2021/11/28 03:23:43;;;;;;;19.67;14.97;;;3.20;99.90;;;;;;4908790;29;20480;-61
2021/11/28 03:26:13;;;;;;;17.13;13.63;;;3.20;99.90;;;;;;4921974;29;20484;-61
2021/11/28 03:28:45;;;;;;;18.37;13.87;;;3.30;99.90;;;;;;4919523;29;20488;-61
2021/11/28 03:31:16;;;;;;;21.10;16.50;;;3.30;99.90;;;;;;4912817;29;20534;-62
2021/11/28 03:34:09;;;;;;;19.03;15.20;;;3.30;99.90;;;;;;4897679;29;20482;-62
2021/11/28 03:36:43;;;;;;;20.50;14.83;;;3.30;99.90;;;;;;4900196;29;20824;-59
2021/11/28 03:39:14;;;;;;;20.27;16.57;;;3.30;99.90;;;;;;4908592;29;20482;-62
2021/11/28 03:41:44;;;;;;;18.93;15.40;;;3.30;99.90;;;;;;4922685;29;20517;-61
2021/11/28 03:44:14;;;;;;;21.07;15.60;;;3.30;99.90;;;;;;4908769;29;20480;-61
2021/11/28 03:46:59;;;;;;;19.77;15.57;;;3.30;99.90;;;;;;4909008;29;20496;-61
2021/11/28 03:49:27;;;;;;;19.57;15.53;;;3.30;99.90;;;;;;4908717;29;20480;-61
2021/11/28 03:51:57;;;;;;;18.90;15.60;;;3.40;99.90;;;;;;4910958;29;20493;-61
2021/11/28 03:54:26;;;;;;;18.97;15.43;;;3.40;99.90;;;;;;4911307;29;20889;-61
2021/11/28 03:56:54;;;;;;;18.73;14.57;;;3.40;99.90;;;;;;4918050;29;20486;-61
2021/11/28 03:59:25;;;;;;;19.67;15.53;;;3.40;99.90;;;;;;4911765;29;20860;-61
2021/11/28 04:01:53;;;;;;;20.40;16.00;;;3.50;99.90;;;;;;4912069;29;20512;-62
2021/11/28 04:04:22;;;;;;;20.80;16.07;;;3.40;99.90;;;;;;4903376;29;20908;-61
2021/11/28 04:07:10;;;;;;;22.03;15.87;;;3.50;99.90;;;;;;4919013;29;20838;-62
2021/11/28 04:09:40;;;;;;;18.90;15.13;;;3.40;99.90;;;;;;4908136;29;20572;-61
2021/11/28 04:12:10;;;;;;;21.70;16.83;;;3.50;99.90;;;;;;4912234;29;20979;-61
2021/11/28 04:14:40;;;;;;;21.80;16.93;;;3.50;99.90;;;;;;4919593;29;20502;-61
2021/11/28 04:17:10;;;;;;;21.60;16.80;;;3.50;99.90;;;;;;4910705;29;20543;-61
2021/11/28 04:19:43;;;;;;;21.27;16.53;;;3.50;99.90;;;;;;4909530;29;20539;-61
2021/11/28 04:22:13;;;;;;;21.23;16.63;;;3.50;99.90;;;;;;4908930;29;20892;-62
2021/11/28 04:24:42;;;;;;;22.90;17.47;;;3.60;99.90;;;;;;4907726;29;20476;-62
2021/11/28 04:27:10;;;;;;;22.63;17.40;;;3.50;99.90;;;;;;4913340;29;20519;-62
2021/11/28 04:29:39;;;;;;;21.70;17.73;;;3.60;99.90;;;;;;4907862;29;20477;-60
2021/11/28 04:32:08;;;;;;;21.47;17.17;;;3.50;99.90;;;;;;4907710;29;20476;-62
2021/11/28 04:34:44;;;;;;;19.90;16.37;;;3.50;99.90;;;;;;4899147;29;20493;-60
2021/11/28 04:37:14;;;;;;;20.40;17.73;;;3.50;99.90;;;;;;4902048;29;21100;-61
2021/11/28 04:39:42;;;;;;;19.87;16.57;;;3.50;99.90;;;;;;4904663;29;20507;-61
2021/11/28 04:42:12;;;;;;;20.07;15.87;;;3.60;99.90;;;;;;4910512;29;21572;-60
2021/11/28 04:44:46;;;;;;;21.40;17.20;;;3.60;99.90;;;;;;4910212;29;20492;-61
2021/11/28 04:47:15;;;;;;;21.70;17.83;;;3.50;99.90;;;;;;4910046;29;20521;-60
2021/11/28 04:49:51;;;;;;;20.20;16.97;;;3.50;99.90;;;;;;4898969;29;20487;-61
2021/11/28 04:52:20;;;;;;;21.17;16.43;;;3.50;99.90;;;;;;4901972;29;20562;-62
2021/11/28 04:54:48;;;;;;;19.13;15.93;;;3.60;99.90;;;;;;4916901;29;20482;-61
2021/11/28 04:57:19;;;;;;;20.27;16.80;;;3.50;99.90;;;;;;4911065;29;20485;-62
2021/11/28 04:59:48;;;;;;;19.03;16.27;;;3.50;99.90;;;;;;4910283;29;21570;-62
2021/11/28 05:02:17;;;;;;;20.47;17.10;;;3.60;99.90;;;;;;4909248;29;21012;-61
2021/11/28 05:04:46;;;;;;;22.07;17.50;;;3.50;99.90;;;;;;4907733;29;20477;-62
2021/11/28 05:07:44;;;;;;;22.60;17.53;;;3.50;99.90;;;;;;4923979;29;20842;-61
2021/11/28 05:10:13;;;;;;;21.30;17.07;;;3.50;99.90;;;;;;4907153;29;20480;-61
2021/11/28 05:12:51;;;;;;;21.37;17.77;;;3.60;99.90;;;;;;4906845;29;20501;-62
2021/11/28 05:15:20;;;;;;;21.60;17.97;;;3.60;99.90;;;;;;4894270;29;21120;-61
2021/11/28 05:18:17;;;;;;;21.57;17.50;;;3.50;99.90;;;;;;4904858;29;20483;-61
2021/11/28 05:20:55;;;;;;;21.83;17.40;;;3.50;99.90;;;;;;4911509;29;20894;-61
2021/11/28 05:23:25;;;;;;;21.07;18.03;;;3.50;99.90;;;;;;4911040;29;20487;-62
2021/11/28 05:25:53;;;;;;;19.70;17.10;;;3.50;99.90;;;;;;4914654;29;20478;-62
2021/11/28 05:28:22;;;;;;;20.43;17.10;;;3.50;99.90;;;;;;4910765;29;21002;-61
2021/11/28 05:30:51;;;;;;;20.67;16.70;;;3.50;99.90;;;;;;4910779;29;20548;-61
2021/11/28 05:33:38;;;;;;;19.10;15.73;;;3.50;99.90;;;;;;4918495;29;20845;-62
2021/11/28 05:36:25;;;;;;;21.17;16.47;;;3.60;99.90;;;;;;4922060;29;20517;-61
2021/11/28 05:38:59;;;;;;;22.93;17.87;;;3.70;99.90;;;;;;4910673;29;20507;-62
2021/11/28 05:41:27;;;;;;;22.97;17.80;;;3.60;99.90;;;;;;4913036;29;20480;-61
2021/11/28 05:43:55;;;;;;;23.53;17.73;;;3.50;99.90;;;;;;4906249;29;20572;-61
2021/11/28 05:46:27;;;;;;;21.17;17.07;;;3.50;99.90;;;;;;4905991;29;20489;-62
2021/11/28 05:49:14;;;;;;;23.53;17.60;;;3.50;99.90;;;;;;4918093;29;20507;-61
2021/11/28 05:51:48;;;;;;;22.27;17.40;;;3.60;99.90;;;;;;4916588;29;20481;-61
2021/11/28 05:54:17;;;;;;;22.50;16.97;;;3.50;99.90;;;;;;4906479;29;20532;-60
2021/11/28 05:56:46;;;;;;;25.87;18.43;;;3.60;99.90;;;;;;4909211;29;21007;-62
2021/11/28 05:59:14;;;;;;;22.37;17.97;;;3.60;99.90;;;;;;4905927;29;20849;-61
2021/11/28 06:01:43;;;;;;;24.77;18.37;;;3.50;99.90;;;;;;4914425;29;20483;-60
2021/11/28 06:04:12;;;;;;;21.50;17.30;;;3.50;99.90;;;;;;4911748;29;20500;-62
2021/11/28 06:06:59;;;;;;;23.70;17.03;;;3.50;99.90;;;;;;4920166;29;20490;-62
2021/11/28 06:09:32;;;;;;;22.13;17.63;;;3.50;99.90;;;;;;4901324;29;20486;-62
2021/11/28 06:12:01;;;;;;;23.03;17.43;;;3.40;99.90;;;;;;4914227;29;20579;-61
2021/11/28 06:14:29;;;;;;;23.37;17.97;;;3.60;99.90;;;;;;4910241;29;20481;-61
2021/11/28 06:17:17;;;;;;;22.23;17.43;;;3.50;99.90;;;;;;4913609;29;20483;-61
2021/11/28 06:20:05;;;;;;;22.33;17.17;;;3.60;99.90;;;;;;4920848;29;20533;-61
2021/11/28 06:22:52;;;;;;;22.23;16.90;;;3.50;99.90;;;;;;4923075;29;20502;-60
2021/11/28 06:25:23;;;;;;;20.87;15.90;;;3.50;99.90;;;;;;4904666;29;20539;-61
2021/11/28 06:28:11;;;;;;;23.00;17.50;;;3.60;99.90;;;;;;4921770;29;20555;-62
2021/11/28 06:30:39;;;;;;;21.57;16.77;;;3.60;99.90;;;;;;4910886;29;20485;-61
2021/11/28 06:33:18;;;;;;;24.00;17.63;;;3.60;99.90;;;;;;4920511;29;21027;-61
2021/11/28 06:36:05;;;;;;;21.83;17.17;;;3.60;99.90;;;;;;4928236;29;20607;-61
2021/11/28 06:39:12;;;;;;;21.20;16.27;;;3.60;99.90;;;;;;4917756;29;20587;-61
2021/11/28 06:42:00;;;;;;;21.40;16.23;;;3.60;99.90;;;;;;4917553;29;21138;-61
2021/11/28 06:44:28;;;;;;;20.97;16.77;;;3.60;99.90;;;;;;4911765;29;20483;-61
2021/11/28 06:46:57;;;;;;;20.67;16.03;;;3.60;99.90;;;;;;4899674;29;20583;-61
2021/11/28 06:49:27;;;;;;;21.83;16.97;;;3.60;99.90;;;;;;4907927;29;20497;-60
2021/11/28 06:52:01;;;;;;;21.20;15.90;;;3.60;99.90;;;;;;4921313;29;20482;-61
2021/11/28 06:54:48;;;;;;;20.53;15.10;;;3.60;99.90;;;;;;4920090;29;20878;-61
2021/11/28 06:57:17;;;;;;;23.33;17.43;;;3.70;99.90;;;;;;4909816;29;20577;-62
2021/11/28 06:59:46;;;;;;;21.67;16.33;;;3.70;99.90;;;;;;4896551;29;21047;-61
2021/11/28 07:02:19;;;;;;;21.03;16.37;;;3.70;99.90;;;;;;4904416;29;20632;-61
2021/11/28 07:04:48;;;;;;;21.40;15.90;;;3.70;99.90;;;;;;4900146;29;21243;-62
2021/11/28 07:07:27;;;;;;;19.63;15.70;;;3.70;99.90;;;;;;4889730;29;21000;-61
2021/11/28 07:10:04;;;;;;;23.13;16.97;;;3.70;99.90;;;;;;4892038;29;20491;-62
2021/11/28 07:12:34;;;;;;;21.70;16.17;;;3.70;99.90;;;;;;4892104;29;21061;-61
2021/11/28 07:15:05;;;;;;;23.50;17.53;;;3.70;99.90;;;;;;4888563;29;20494;-62
2021/11/28 07:17:33;;;;;;;21.03;15.97;;;3.70;99.90;;;;;;4891569;29;20912;-62
2021/11/28 07:20:03;;;;;;;21.03;16.30;;;3.70;99.90;;;;;;4892393;29;21058;-62
2021/11/28 07:22:45;;;;;;;22.43;15.97;;;3.70;99.90;;;;;;4891482;29;20478;-61
2021/11/28 07:25:14;;;;;;;19.03;14.13;;;3.70;99.90;;;;;;4887383;29;20498;-62
2021/11/28 07:27:49;;;;;;;22.83;16.60;;;3.80;99.90;;;;;;4892242;29;20479;-61
2021/11/28 07:30:17;;;;;;;22.97;16.57;;;3.80;99.90;;;;;;4892198;29;20495;-61
2021/11/28 07:32:49;;;;;;;21.67;16.03;;;3.80;99.90;;;;;;4890839;29;21056;-61
2021/11/28 07:35:26;;;;;;;22.27;16.33;;;3.70;99.90;;;;;;4896857;29;21052;-61
2021/11/28 07:38:06;;;;;;;23.77;17.03;;;3.80;99.90;;;;;;4891672;29;20486;-61
2021/11/28 07:40:34;;;;;;;20.20;15.90;;;3.70;99.90;;;;;;4902565;29;20573;-62
2021/11/28 07:43:22;;;;;;;19.83;15.07;;;3.70;99.90;;;;;;4890184;29;20873;-61
2021/11/28 07:46:09;;;;;;;21.20;15.23;;;3.80;99.90;;;;;;4900687;29;20519;-62
2021/11/28 07:49:14;;;;;;;23.67;15.50;;;3.90;99.90;;;;;;4895023;29;20494;-62
2021/11/28 07:51:42;;;;;;;23.23;15.53;;;4.00;99.90;;;;;;4891515;29;21080;-62
2021/11/28 07:54:15;;;;;;;25.33;16.60;;;4.10;99.90;;;;;;4886517;29;20495;-62
2021/11/28 07:56:44;;;;;;;25.83;16.73;;;4.10;99.90;;;;;;4891092;29;20546;-62
2021/11/28 07:59:34;;;;;;;26.93;16.97;;;4.00;99.90;;;;;;4901544;29;20478;-61
2021/11/28 08:02:07;;;;;;;24.73;17.60;;;3.90;99.90;;;;;;4890628;29;20482;-61
2021/11/28 08:04:42;;;;;;;26.07;17.70;;;3.90;99.90;;;;;;4894835;29;20496;-61
2021/11/28 08:07:48;;;;;;;24.73;17.27;;;4.20;99.90;;;;;;4900842;29;20490;-61
2021/11/28 08:10:42;;;;;;;24.47;16.77;;;4.10;99.90;;;;;;4891112;29;20649;-61
2021/11/28 08:13:11;;;;;;;25.17;16.23;;;4.30;99.90;;;;;;4901226;29;20496;-61
2021/11/28 08:15:40;;;;;;;26.83;17.13;;;4.30;99.90;;;;;;4897526;29;21113;-61
2021/11/28 08:18:08;;;;;;;28.93;17.30;;;4.30;99.90;;;;;;4900451;29;20499;-62
2021/11/28 08:20:36;;;;;;;32.50;20.20;;;4.30;99.90;;;;;;4900965;29;20558;-62
2021/11/28 08:23:05;;;;;;;28.00;19.10;;;4.30;99.90;;;;;;4900932;29;20495;-60
2021/11/28 08:25:33;;;;;;;27.73;18.43;;;4.10;99.90;;;;;;4896592;29;20477;-62
2021/11/28 08:28:06;;;;;;;24.43;16.80;;;4.10;99.90;;;;;;4900448;29;21078;-62
2021/11/28 08:30:35;;;;;;;27.33;18.73;;;4.10;99.90;;;;;;4901527;29;20486;-62
2021/11/28 08:33:07;;;;;;;26.20;17.67;;;4.20;99.90;;;;;;4900826;29;20499;-62
2021/11/28 08:35:45;;;;;;;26.60;17.60;;;4.30;99.90;;;;;;4895034;29;20487;-61
2021/11/28 08:38:14;;;;;;;25.47;16.90;;;4.10;99.90;;;;;;4888811;29;20500;-60
2021/11/28 08:40:42;;;;;;;25.87;18.03;;;4.10;99.90;;;;;;4899409;29;20476;-61
2021/11/28 08:43:10;;;;;;;23.83;17.10;;;4.00;99.90;;;;;;4900090;29;20491;-62
2021/11/28 08:45:39;;;;;;;22.70;16.60;;;4.00;99.90;;;;;;4897025;29;20487;-61
2021/11/28 08:48:09;;;;;;;23.03;17.17;;;4.00;99.90;;;;;;4914123;29;20985;-61
2021/11/28 08:50:37;;;;;;;21.37;15.77;;;4.00;99.90;;;;;;4913708;29;20483;-62
2021/11/28 08:53:05;;;;;;;22.50;16.57;;;4.20;99.90;;;;;;4919635;29;20479;-61
2021/11/28 08:55:34;;;;;;;21.63;16.50;;;4.10;99.90;;;;;;4919411;29;20487;-61
2021/11/28 08:58:02;;;;;;;20.27;15.13;;;4.10;99.90;;;;;;4922050;29;20486;-62
2021/11/28 09:00:30;;;;;;;17.90;14.43;;;4.10;99.90;;;;;;4916340;29;20558;-62
2021/11/28 09:02:58;;;;;;;20.40;15.23;;;4.10;99.90;;;;;;4915839;29;20490;-62
2021/11/28 09:05:28;;;;;;;17.67;14.90;;;4.20;99.90;;;;;;4920044;29;20488;-60
2021/11/28 09:07:57;;;;;;;15.70;14.00;;;4.20;99.90;;;;;;4915307;29;20486;-62
2021/11/28 09:10:25;;;;;;;16.50;14.13;;;4.20;99.90;;;;;;4921809;29;20480;-61
2021/11/28 09:12:54;;;;;;;16.37;14.07;;;4.20;99.90;;;;;;4915734;29;20575;-62
2021/11/28 09:15:22;;;;;;;16.90;13.73;;;4.10;99.90;;;;;;4918105;29;20488;-61
2021/11/28 09:17:52;;;;;;;16.00;14.13;;;4.10;99.90;;;;;;4924041;29;20486;-62
2021/11/28 09:20:23;;;;;;;16.20;14.50;;;4.10;99.90;;;;;;4924107;29;20482;-61
2021/11/28 09:25:41;;;;;;;16.70;13.97;;;4.20;99.90;;;;;;4923214;29;20517;-62
2021/11/28 09:28:12;;;;;;;17.23;14.60;;;4.20;99.90;;;;;;4922001;29;20515;-61
2021/11/28 09:30:41;;;;;;;16.57;14.40;;;4.10;99.90;;;;;;4915990;29;20536;-62
2021/11/28 09:33:09;;;;;;;15.30;13.70;;;4.20;99.90;;;;;;4928419;29;20487;-62
2021/11/28 09:35:37;;;;;;;15.10;12.67;;;4.20;99.90;;;;;;4922153;29;20988;-61
2021/11/28 09:38:07;;;;;;;21.43;16.53;;;4.30;99.90;;;;;;4917227;29;20494;-61
2021/11/28 09:40:35;;;;;;;20.17;16.43;;;4.40;99.90;;;;;;4931096;29;20838;-62
2021/11/28 09:43:05;;;;;;;20.43;17.37;;;4.60;99.90;;;;;;4926624;29;20837;-62
2021/11/28 09:45:34;;;;;;;20.47;16.13;;;4.80;99.90;;;;;;4926246;29;20486;-61
2021/11/28 09:48:05;;;;;;;24.13;17.87;;;4.80;99.90;;;;;;4918706;29;20860;-62
2021/11/28 09:50:33;;;;;;;19.43;15.83;;;4.60;99.90;;;;;;4918713;29;20555;-62
2021/11/28 09:53:03;;;;;;;25.37;18.80;;;4.60;99.90;;;;;;4925789;29;20476;-62
2021/11/28 09:55:33;;;;;;;29.13;19.23;;;4.80;99.90;;;;;;4915341;29;20478;-62
2021/11/28 09:58:03;;;;;;;26.10;20.23;;;4.70;99.90;;;;;;4920354;29;21074;-62
2021/11/28 10:00:31;;;;;;;29.80;20.23;;;4.70;99.90;;;;;;4929786;29;20486;-62
2021/11/28 10:03:00;;;;;;;26.13;19.50;;;5.20;99.90;;;;;;4921087;29;20777;-62
2021/11/28 10:05:28;;;;;;;24.10;19.90;;;5.00;99.90;;;;;;4916296;29;20483;-62
2021/11/28 10:07:58;;;;;;;22.87;19.57;;;5.00;99.90;;;;;;4926888;29;20494;-61
2021/11/28 10:10:27;;;;;;;21.90;17.83;;;4.90;99.90;;;;;;4911133;29;21246;-62
2021/11/28 10:12:56;;;;;;;21.43;17.93;;;4.80;99.90;;;;;;4902463;29;20567;-62
2021/11/28 10:15:27;;;;;;;21.80;18.50;;;4.70;99.90;;;;;;4901556;29;20476;-62
2021/11/28 10:17:55;;;;;;;20.13;17.10;;;4.70;99.90;;;;;;4899777;29;20948;-61
2021/11/28 10:20:26;;;;;;;20.57;16.97;;;4.60;99.90;;;;;;4901827;29;20503;-62
2021/11/28 10:22:55;;;;;;;18.70;15.80;;;4.70;99.90;;;;;;4901674;29;20497;-61
2021/11/28 10:25:25;;;;;;;19.63;16.03;;;4.70;99.90;;;;;;4901540;29;20579;-62
2021/11/28 10:27:56;;;;;;;20.03;17.00;;;4.90;99.90;;;;;;4897641;29;20491;-62
2021/11/28 10:30:35;;;;;;;19.07;16.70;;;4.90;99.90;;;;;;4901988;29;20587;-62
2021/11/28 10:33:09;;;;;;;19.87;17.63;;;4.90;99.90;;;;;;4901836;29;20490;-60
2021/11/28 10:35:38;;;;;;;19.80;17.47;;;4.90;99.90;;;;;;4902180;29;21128;-62
2021/11/28 10:38:13;;;;;;;21.37;17.40;;;4.90;99.90;;;;;;4898914;29;20863;-62
2021/11/28 10:40:46;;;;;;;20.37;17.50;;;4.90;99.90;;;;;;4901277;29;21213;-60
2021/11/28 10:43:17;;;;;;;19.90;17.73;;;4.80;99.90;;;;;;4901566;29;20595;-62
2021/11/28 10:45:49;;;;;;;20.50;18.03;;;4.80;99.90;;;;;;4901338;29;20479;-62
2021/11/28 10:48:23;;;;;;;21.13;16.97;;;4.90;99.90;;;;;;4897794;29;20495;-62
2021/11/28 10:50:54;;;;;;;21.43;17.20;;;5.00;99.90;;;;;;4901615;29;21147;-62
2021/11/28 10:53:24;;;;;;;19.83;17.13;;;5.10;99.90;;;;;;4900913;29;21031;-61
2021/11/28 10:55:54;;;;;;;18.53;16.53;;;5.10;99.90;;;;;;4903615;29;20235;-62
2021/11/28 10:58:25;;;;;;;18.60;16.57;;;5.20;99.90;;;;;;4922515;29;20251;-61
2021/11/28 11:01:06;;;;;;;17.27;15.33;;;5.10;99.90;;;;;;4914680;29;21300;-61
2021/11/28 11:03:36;;;;;;;19.17;16.13;;;5.00;99.90;;;;;;4916250;29;20484;-62
2021/11/28 11:06:17;;;;;;;19.37;15.87;;;4.90;99.90;;;;;;4917125;29;20528;-62
2021/11/28 11:08:48;;;;;;;17.40;15.30;;;4.90;99.90;;;;;;4898368;29;20503;-62
2021/11/28 11:11:18;;;;;;;17.03;15.00;;;4.90;99.90;;;;;;4921487;29;20487;-61
2021/11/28 11:13:56;;;;;;;16.30;13.97;;;4.90;99.90;;;;;;4923719;29;20499;-61
2021/11/28 11:16:33;;;;;;;18.47;15.33;;;5.00;99.90;;;;;;4921805;29;20893;-61
2021/11/28 11:19:28;;;;;;;16.27;14.53;;;5.00;99.90;;;;;;4918294;29;20892;-62
2021/11/28 11:22:05;;;;;;;18.23;16.00;;;5.20;99.90;;;;;;4921570;29;21063;-61
2021/11/28 11:24:36;;;;;;;16.67;14.87;;;5.10;99.90;;;;;;4915571;29;20480;-61
2021/11/28 11:27:10;;;;;;;16.87;15.07;;;5.20;99.90;;;;;;4919398;29;21184;-62
2021/11/28 11:29:43;;;;;;;16.93;14.77;;;5.10;99.90;;;;;;4913949;29;20264;-62
2021/11/28 11:32:13;;;;;;;16.63;14.30;;;5.10;99.90;;;;;;4916766;29;20491;-62
2021/11/28 11:34:52;;;;;;;16.03;14.20;;;5.00;99.90;;;;;;4920635;29;20482;-61
2021/11/28 11:37:24;;;;;;;17.23;14.10;;;5.00;99.90;;;;;;4907392;29;20982;-62
2021/11/28 11:39:53;;;;;;;14.17;12.60;;;4.90;99.90;;;;;;4922587;29;20645;-62
2021/11/28 11:42:23;;;;;;;15.57;13.50;;;4.90;99.90;;;;;;4924113;29;21213;-62
2021/11/28 11:44:52;;;;;;;14.20;12.20;;;4.90;99.90;;;;;;4913733;29;20498;-62
2021/11/28 11:47:22;;;;;;;15.30;12.60;;;4.90;99.90;;;;;;4899348;29;20479;-62
2021/11/28 11:49:52;;;;;;;13.40;12.00;;;5.00;99.90;;;;;;4912638;29;20564;-62
2021/11/28 11:52:21;;;;;;;14.47;12.13;;;5.00;99.90;;;;;;4922785;29;20510;-62
2021/11/28 11:54:52;;;;;;;14.27;12.77;;;5.10;99.90;;;;;;4916880;29;20480;-62
2021/11/28 11:57:23;;;;;;;13.73;12.33;;;5.20;99.90;;;;;;4923205;29;20495;-62
2021/11/28 12:00:16;;;;;;;15.80;12.47;;;5.20;99.90;;;;;;4912280;29;20484;-61
2021/11/28 12:02:46;;;;;;;14.33;12.63;;;5.30;99.90;;;;;;4908757;29;20558;-60
2021/11/28 12:05:36;;;;;;;14.43;12.93;;;5.50;99.90;;;;;;4924228;29;20517;-62
2021/11/28 12:08:24;;;;;;;13.67;12.07;;;5.50;99.90;;;;;;4903030;29;20241;-62
2021/11/28 12:11:04;;;;;;;14.40;12.33;;;5.50;99.90;;;;;;4907916;29;20987;-62
2021/11/28 12:13:54;;;;;;;13.87;12.37;;;5.60;99.90;;;;;;4921401;29;20873;-61
2021/11/28 12:16:33;;;;;;;14.87;12.83;;;5.60;99.90;;;;;;4913437;29;20870;-61
2021/11/28 12:19:01;;;;;;;14.07;12.33;;;5.50;99.90;;;;;;4908707;29;21056;-61
2021/11/28 12:21:43;;;;;;;12.87;11.60;;;5.50;99.90;;;;;;4926536;29;20463;-62
2021/11/28 12:24:21;;;;;;;12.57;11.27;;;5.40;99.90;;;;;;4928406;29;20983;-60
2021/11/28 12:26:51;;;;;;;11.10;9.83;;;5.50;99.90;;;;;;4914903;29;20650;-60
2021/11/28 12:29:40;;;;;;;12.63;11.33;;;5.50;99.90;;;;;;4914790;29;20503;-62
2021/11/28 12:32:33;;;;;;;11.30;9.70;;;5.50;99.90;;;;;;4923687;29;20745;-62
2021/11/28 12:35:03;;;;;;;10.80;9.67;;;5.50;99.90;;;;;;4916809;29;20303;-61
2021/11/28 12:37:35;;;;;;;10.70;9.60;;;5.60;99.90;;;;;;4920947;29;20494;-60
2021/11/28 12:40:25;;;;;;;10.43;9.27;;;5.60;99.90;;;;;;4916386;29;20247;-61
2021/11/28 12:42:53;;;;;;;10.60;9.57;;;5.60;99.90;;;;;;4919989;29;20354;-62
2021/11/28 12:45:35;;;;;;;10.67;9.57;;;5.60;99.90;;;;;;4914420;29;20490;-62
2021/11/28 12:48:11;;;;;;;10.87;9.77;;;5.60;99.90;;;;;;4918845;29;20728;-62
2021/11/28 12:51:01;;;;;;;10.60;9.60;;;5.50;99.90;;;;;;4920913;29;20286;-62
2021/11/28 12:53:36;;;;;;;10.47;9.37;;;5.50;99.90;;;;;;4918834;29;20958;-62
2021/11/28 12:56:21;;;;;;;11.20;10.00;;;5.50;99.90;;;;;;4906773;29;20269;-62
2021/11/28 12:59:15;;;;;;;10.60;9.50;;;5.40;99.90;;;;;;4895888;29;20338;-62
2021/11/28 13:01:55;;;;;;;10.33;9.30;;;5.30;99.90;;;;;;4891877;29;20488;-62
2021/11/28 13:04:44;;;;;;;11.17;9.93;;;5.30;99.90;;;;;;4898796;29;21072;-62
2021/11/28 13:07:39;;;;;;;11.73;10.53;;;5.30;99.90;;;;;;4897323;29;21139;-61
2021/11/28 13:10:23;;;;;;;11.53;10.33;;;5.20;99.90;;;;;;4865764;29;20495;-61
2021/11/28 13:12:51;;;;;;;11.60;10.40;;;5.20;99.90;;;;;;4900681;29;20247;-61
2021/11/28 13:15:22;;;;;;;13.17;11.40;;;5.30;99.90;;;;;;4901299;29;20305;-62